Time;durP1;ratioP1;P1;durP2;ratioP2;P2;SDS_P1;SDS_P2;PMS_P1;PMS_P2;Temp;Humidity;BMP_temperature;BMP_pressure;BME280_temperature;BME280_humidity;BME280_pressure;Samples;Min_cycle;Max_cycle;Signal;HPM_P1;HPM_P2
2021/03/10 00:00:15;;;;;;;31.02;20.65;;;6.20;70.10;;;5.09;63.92;98545.50;4965710;29;20461;-82
2021/03/10 00:02:42;;;;;;;31.15;19.60;;;6.20;70.10;;;5.11;64.00;98544.34;4966044;29;20441;-83
2021/03/10 00:05:10;;;;;;;32.50;20.92;;;6.20;70.10;;;5.11;63.96;98541.72;4970990;28;20445;-83
2021/03/10 00:07:37;;;;;;;29.85;19.92;;;6.20;70.00;;;5.27;63.58;98548.50;4965928;29;20410;-83
2021/03/10 00:10:07;;;;;;;33.65;19.90;;;6.30;69.60;;;4.87;64.89;98552.56;4950822;29;20426;-81
2021/03/10 00:12:34;;;;;;;33.63;20.42;;;6.20;70.00;;;4.74;65.42;98545.34;4967437;29;20677;-82
2021/03/10 00:15:01;;;;;;;35.78;20.88;;;5.90;71.40;;;4.65;65.74;98544.66;4971774;28;20421;-82
2021/03/10 00:17:27;;;;;;;34.97;21.27;;;5.80;72.00;;;4.72;65.41;98533.44;4973083;29;20525;-81
2021/03/10 00:19:54;;;;;;;36.08;22.50;;;5.80;71.80;;;4.83;65.57;98546.03;4974508;29;20421;-81
2021/03/10 00:22:20;;;;;;;36.85;21.80;;;5.90;71.70;;;4.60;66.28;98548.81;4960763;29;20425;-82
2021/03/10 00:24:46;;;;;;;38.50;23.58;;;5.80;72.10;;;4.58;67.10;98543.78;4974143;29;20480;-83
2021/03/10 00:27:23;;;;;;;39.05;23.40;;;5.70;73.30;;;4.67;67.33;98553.16;4975303;29;20417;-83
2021/03/10 00:29:52;;;;;;;37.42;22.55;;;5.80;73.70;;;4.65;67.26;98549.91;4975804;28;20454;-83
2021/03/10 00:32:19;;;;;;;41.65;25.27;;;5.80;73.60;;;4.62;67.87;98552.06;4966307;29;20505;-83
2021/03/10 00:34:46;;;;;;;43.20;23.88;;;5.70;74.30;;;4.62;67.80;98552.06;4969933;29;20506;-82
2021/03/10 00:37:13;;;;;;;40.15;24.48;;;5.80;74.20;;;4.65;67.66;98557.78;4970322;29;20823;-83
2021/03/10 00:39:39;;;;;;;39.85;24.55;;;5.80;74.00;;;4.70;67.62;98562.47;4974863;28;20516;-81
2021/03/10 00:42:06;;;;;;;44.47;25.48;;;5.80;74.00;;;4.79;67.44;98563.16;4979089;29;20406;-79
2021/03/10 00:44:33;;;;;;;42.03;26.08;;;5.90;73.90;;;4.93;67.48;98557.88;4973202;29;20449;-82
2021/03/10 00:47:00;;;;;;;45.78;26.52;;;6.00;74.20;;;4.70;67.98;98562.47;4970193;29;20421;-84
2021/03/10 00:49:26;;;;;;;48.13;28.42;;;5.90;74.20;;;4.50;68.79;98567.50;4970186;29;20424;-84
2021/03/10 00:51:52;;;;;;;47.97;28.83;;;5.70;75.00;;;4.44;69.19;98570.81;4969681;29;20450;-83
2021/03/10 00:54:19;;;;;;;48.45;29.00;;;5.60;75.70;;;4.38;69.51;98574.16;4971099;29;20473;-83
2021/03/10 00:56:45;;;;;;;51.93;30.07;;;5.50;76.10;;;4.42;69.69;98566.78;4973992;29;20442;-83
2021/03/10 00:59:11;;;;;;;51.07;30.37;;;5.50;76.30;;;4.46;69.37;98568.84;4960198;29;20414;-83
2021/03/10 01:01:38;;;;;;;48.10;29.10;;;5.60;76.10;;;4.56;69.30;98573.81;4979922;28;20425;-80
2021/03/10 01:04:06;;;;;;;54.63;31.70;;;5.70;75.80;;;4.49;69.44;98567.66;4979332;28;20457;-82
2021/03/10 01:06:32;;;;;;;51.50;30.55;;;5.60;75.90;;;4.44;69.64;98567.38;4979286;28;20429;-81
2021/03/10 01:08:59;;;;;;;52.30;30.90;;;5.60;76.00;;;4.46;69.49;98563.59;4961579;29;20422;-84
2021/03/10 01:11:25;;;;;;;51.70;30.60;;;5.60;76.10;;;4.49;69.17;98572.91;4976290;29;20430;-83
2021/03/10 01:13:51;;;;;;;52.42;30.98;;;5.60;75.90;;;4.39;69.64;98567.94;4974301;29;20421;-80
2021/03/10 01:16:18;;;;;;;51.30;30.25;;;5.50;76.20;;;4.24;70.13;98559.28;4977827;28;20426;-79
2021/03/10 01:18:44;;;;;;;52.95;31.17;;;5.40;76.70;;;4.25;70.16;98566.97;4959764;29;20429;-81
2021/03/10 01:21:11;;;;;;;52.45;29.30;;;5.40;76.80;;;4.04;70.79;98552.97;4973238;29;20433;-82
2021/03/10 01:23:37;;;;;;;53.35;30.92;;;5.20;77.30;;;4.09;70.86;98555.84;4974797;29;20421;-82
2021/03/10 01:26:04;;;;;;;54.97;30.42;;;5.20;77.60;;;4.18;70.48;98549.53;4971545;28;20425;-79
2021/03/10 01:28:30;;;;;;;55.15;31.67;;;5.30;77.40;;;4.33;70.03;98557.38;4975907;29;20426;-84
2021/03/10 01:30:56;;;;;;;54.00;30.92;;;5.40;77.00;;;4.32;70.06;98547.88;4974175;29;20418;-82
2021/03/10 01:33:23;;;;;;;52.97;31.02;;;5.50;76.90;;;4.35;69.92;98548.34;4974226;29;20414;-83
2021/03/10 01:35:49;;;;;;;53.72;30.55;;;5.50;76.50;;;4.44;69.49;98544.59;4976625;29;20405;-82
2021/03/10 01:38:17;;;;;;;52.43;31.20;;;5.60;76.30;;;4.43;69.64;98547.44;4978035;28;20524;-79
2021/03/10 01:40:43;;;;;;;53.65;30.90;;;5.60;76.00;;;4.60;68.84;98549.63;4977387;28;20493;-80
2021/03/10 01:43:10;;;;;;;50.65;30.08;;;5.70;75.70;;;4.60;69.03;98546.19;4961963;28;20433;-82
2021/03/10 01:45:37;;;;;;;51.97;31.88;;;5.70;75.40;;;4.58;68.81;98545.59;4975410;29;20425;-83
2021/03/10 01:48:08;;;;;;;54.63;31.02;;;5.70;75.30;;;4.58;68.90;98548.22;4972368;29;20512;-84
2021/03/10 01:50:36;;;;;;;51.63;31.48;;;5.70;75.30;;;4.60;68.51;98548.81;4956040;29;20430;-84
2021/03/10 01:53:03;;;;;;;55.28;32.22;;;5.70;75.10;;;4.62;68.57;98549.47;4970123;29;20418;-83
2021/03/10 01:55:32;;;;;;;52.88;31.42;;;5.80;75.00;;;4.60;68.51;98546.19;4952986;29;20441;-83
2021/03/10 01:57:58;;;;;;;53.83;31.63;;;5.80;75.00;;;4.59;68.68;98555.06;4961392;29;20418;-83
2021/03/10 02:00:27;;;;;;;55.33;32.10;;;5.70;75.00;;;4.62;68.53;98546.84;4967379;29;20434;-83
2021/03/10 02:02:53;;;;;;;54.28;31.73;;;5.80;75.00;;;4.70;68.19;98538.84;4968162;29;20410;-80
2021/03/10 02:05:23;;;;;;;51.53;30.85;;;5.80;74.70;;;4.64;68.63;98547.47;4971257;28;20720;-83
2021/03/10 02:08:16;;;;;;;55.33;32.92;;;5.80;74.80;;;4.70;68.37;98541.47;4969520;29;20410;-83
2021/03/10 02:10:58;;;;;;;53.03;31.35;;;5.70;74.90;;;4.64;68.34;98543.03;4972419;29;20413;-82
2021/03/10 02:13:36;;;;;;;53.75;31.15;;;5.80;74.80;;;4.62;68.38;98537.16;4968659;29;20550;-82
2021/03/10 02:16:10;;;;;;;51.53;31.48;;;5.70;74.80;;;4.69;68.37;98534.59;4968280;29;20855;-83
2021/03/10 02:18:43;;;;;;;47.28;30.50;;;5.70;75.00;;;4.57;68.59;98529.03;4972551;29;20413;-83
2021/03/10 02:21:24;;;;;;;53.00;32.23;;;5.70;75.00;;;4.61;68.38;98532.09;4953034;29;20550;-83
2021/03/10 02:24:23;;;;;;;54.40;32.20;;;5.80;75.00;;;4.66;68.51;98535.78;4959563;29;20418;-83
2021/03/10 02:27:33;;;;;;;51.50;30.47;;;5.80;75.00;;;4.87;67.50;98536.81;4959983;28;20433;-82
2021/03/10 02:30:05;;;;;;;54.97;31.58;;;5.90;74.50;;;4.89;67.71;98535.63;4966433;29;20856;-83
2021/03/10 02:32:35;;;;;;;50.53;30.75;;;6.00;74.20;;;5.15;66.81;98539.50;4968293;29;20433;-83
2021/03/10 02:35:05;;;;;;;52.92;31.38;;;6.10;73.80;;;5.16;66.45;98530.63;4970965;29;20440;-83
2021/03/10 02:37:34;;;;;;;53.30;31.52;;;6.20;73.30;;;4.96;66.90;98530.47;4970628;28;20417;-83
2021/03/10 02:40:04;;;;;;;55.00;31.00;;;6.10;74.00;;;4.84;67.67;98534.56;4972295;29;20493;-83
2021/03/10 02:42:33;;;;;;;52.50;31.83;;;6.00;73.90;;;4.78;67.76;98528.25;4974542;29;20436;-82
2021/03/10 02:45:01;;;;;;;54.10;32.40;;;5.90;74.10;;;4.77;68.06;98537.13;4973295;29;20410;-81
2021/03/10 02:47:27;;;;;;;53.47;32.07;;;5.90;74.30;;;4.68;68.13;98533.78;4975270;29;20736;-83
2021/03/10 02:49:55;;;;;;;56.70;33.57;;;5.90;74.60;;;4.78;67.84;98532.69;4972658;29;20456;-83
2021/03/10 02:52:22;;;;;;;58.42;33.08;;;5.90;74.40;;;4.92;67.63;98543.13;4971933;29;20429;-83
2021/03/10 02:54:50;;;;;;;53.05;31.08;;;5.90;74.40;;;5.13;66.97;98546.75;4970837;29;20401;-83
2021/03/10 02:57:17;;;;;;;55.90;33.00;;;6.10;73.90;;;5.14;66.67;98549.19;4957217;29;20529;-82
2021/03/10 02:59:46;;;;;;;52.25;32.33;;;6.20;73.50;;;5.04;67.09;98554.75;4974715;29;20485;-83
2021/03/10 03:02:13;;;;;;;54.53;33.40;;;6.10;73.60;;;5.02;67.14;98555.94;4952328;29;20422;-83
2021/03/10 03:04:40;;;;;;;58.42;32.72;;;6.10;73.60;;;4.99;67.29;98556.31;4968686;28;20410;-83
2021/03/10 03:07:06;;;;;;;58.08;33.70;;;6.10;73.80;;;4.99;67.27;98553.69;4972607;29;20416;-83
2021/03/10 03:09:33;;;;;;;55.90;33.47;;;6.10;73.90;;;5.08;67.08;98549.94;4958088;29;20432;-80
2021/03/10 03:12:01;;;;;;;58.97;32.97;;;6.10;73.60;;;5.03;67.42;98568.88;4958089;29;20534;-82
2021/03/10 03:14:32;;;;;;;56.30;32.65;;;6.10;73.80;;;4.92;67.48;98566.75;4968265;29;20689;-83
2021/03/10 03:17:01;;;;;;;56.78;33.38;;;6.10;73.80;;;4.99;67.29;98577.31;4960907;29;20410;-82
2021/03/10 03:19:27;;;;;;;55.10;32.25;;;6.00;74.00;;;5.05;67.37;98587.06;4975616;29;20410;-81
2021/03/10 03:21:55;;;;;;;53.72;32.80;;;6.10;74.00;;;4.98;67.56;98584.34;4967093;29;20480;-83
2021/03/10 03:24:23;;;;;;;57.43;33.23;;;6.10;73.90;;;5.07;67.19;98587.69;4967923;29;20737;-82
2021/03/10 03:26:50;;;;;;;54.85;32.00;;;6.10;74.00;;;5.01;67.19;98591.06;4968339;29;20426;-81
2021/03/10 03:29:17;;;;;;;57.28;33.58;;;6.10;73.90;;;4.87;67.72;98582.25;4968139;29;20414;-83
2021/03/10 03:31:45;;;;;;;56.40;33.53;;;6.00;74.00;;;4.90;67.71;98584.47;4968888;29;20418;-82
2021/03/10 03:34:12;;;;;;;60.57;32.23;;;6.00;74.20;;;5.01;67.41;98594.50;4972202;29;20485;-82
2021/03/10 03:36:40;;;;;;;55.88;33.50;;;6.00;74.10;;;4.98;67.69;98588.78;4968027;29;20433;-82
2021/03/10 03:39:07;;;;;;;56.50;32.45;;;6.10;74.20;;;4.72;68.26;98589.31;4968814;29;20421;-82
2021/03/10 03:41:34;;;;;;;57.67;33.28;;;5.90;74.50;;;4.63;68.74;98587.81;4968503;29;20437;-82
2021/03/10 03:44:02;;;;;;;60.35;33.40;;;5.90;75.00;;;4.53;69.16;98587.25;4966971;29;20415;-82
2021/03/10 03:46:30;;;;;;;61.70;33.97;;;5.70;75.60;;;4.32;70.07;98587.19;4967410;29;20516;-83
2021/03/10 03:48:58;;;;;;;61.75;34.70;;;5.50;76.60;;;4.35;70.12;98592.91;4951162;29;20548;-83
2021/03/10 03:51:26;;;;;;;66.83;34.80;;;5.50;76.90;;;4.37;69.95;98577.78;4954318;29;20497;-80
2021/03/10 03:53:58;;;;;;;58.40;33.90;;;5.50;76.80;;;4.33;70.08;98591.44;4954036;29;20414;-83
2021/03/10 03:56:25;;;;;;;58.80;33.17;;;5.50;76.50;;;4.17;70.63;98593.25;4954273;29;20429;-83
2021/03/10 03:58:52;;;;;;;66.20;35.10;;;5.40;77.10;;;4.13;71.08;98592.00;4954613;29;20505;-83
2021/03/10 04:01:18;;;;;;;60.65;35.60;;;5.30;77.70;;;4.18;71.00;98588.84;4971141;29;20516;-82
2021/03/10 04:03:45;;;;;;;62.25;34.85;;;5.30;77.60;;;4.10;70.95;98586.28;4971877;29;20410;-82
2021/03/10 04:06:12;;;;;;;65.80;36.07;;;5.30;77.70;;;4.19;70.79;98588.66;4971451;28;20433;-82
2021/03/10 04:08:41;;;;;;;62.22;35.38;;;5.30;77.70;;;4.18;70.63;98588.84;4974991;29;20797;-80
2021/03/10 04:11:08;;;;;;;63.08;35.78;;;5.30;77.40;;;4.32;70.49;98589.81;4970622;29;20428;-82
2021/03/10 04:13:34;;;;;;;65.53;36.17;;;5.40;77.20;;;4.42;69.89;98590.38;4954719;29;20468;-83
2021/03/10 04:16:00;;;;;;;64.85;35.00;;;5.50;76.90;;;4.31;70.05;98596.88;4970975;29;20606;-82
2021/03/10 04:18:27;;;;;;;64.70;36.60;;;5.50;76.80;;;4.30;69.89;98584.75;4953713;29;20428;-83
2021/03/10 04:20:53;;;;;;;60.83;35.08;;;5.50;76.80;;;4.33;70.09;98586.22;4953841;29;20433;-83
2021/03/10 04:23:19;;;;;;;59.42;34.67;;;5.50;76.70;;;4.47;69.56;98588.81;4971541;29;20456;-82
2021/03/10 04:25:47;;;;;;;70.18;37.03;;;5.60;76.50;;;4.27;70.31;98580.69;4970117;29;20529;-83
2021/03/10 04:28:13;;;;;;;63.85;37.78;;;5.40;76.90;;;4.28;70.18;98600.66;4954305;29;20426;-82
2021/03/10 04:30:40;;;;;;;60.60;33.67;;;5.40;76.90;;;3.98;71.47;98606.91;4971744;29;20457;-83
2021/03/10 04:33:06;;;;;;;69.65;37.78;;;5.20;77.60;;;3.98;71.52;98603.47;4972884;29;20418;-82
2021/03/10 04:35:32;;;;;;;65.05;36.25;;;5.10;78.30;;;3.96;71.80;98606.25;4974611;29;20457;-82
2021/03/10 04:37:59;;;;;;;64.35;34.83;;;5.10;78.60;;;3.85;72.11;98602.25;4975521;29;20411;-81
2021/03/10 04:40:25;;;;;;;65.63;37.92;;;5.10;78.60;;;3.81;72.24;98608.03;4958646;29;20457;-83
2021/03/10 04:42:52;;;;;;;73.57;38.33;;;5.00;79.10;;;3.81;72.27;98594.94;4976341;29;20425;-82
2021/03/10 04:45:18;;;;;;;68.57;38.10;;;5.00;79.20;;;3.86;72.25;98598.66;4976838;29;20421;-83
2021/03/10 04:47:46;;;;;;;64.93;36.58;;;5.00;79.10;;;3.96;71.75;98597.59;4973799;29;20421;-80
2021/03/10 04:50:13;;;;;;;66.80;37.80;;;5.10;78.90;;;3.91;72.02;98605.97;4966608;29;20544;-81
2021/03/10 04:52:40;;;;;;;66.93;36.60;;;5.00;78.90;;;3.91;72.04;98611.19;4966087;29;20488;-81
2021/03/10 04:55:10;;;;;;;69.00;37.15;;;5.10;78.80;;;3.91;72.03;98600.72;4971538;29;20521;-82
2021/03/10 04:57:38;;;;;;;66.75;36.95;;;5.10;78.90;;;3.97;71.87;98610.50;4957511;29;20426;-80
2021/03/10 05:00:09;;;;;;;70.78;37.78;;;5.10;78.70;;;3.85;72.05;98617.16;4972788;28;20433;-79
2021/03/10 05:02:37;;;;;;;72.95;38.42;;;5.00;78.90;;;3.73;72.43;98627.25;4955027;29;20528;-82
2021/03/10 05:05:06;;;;;;;68.03;37.70;;;4.90;79.30;;;3.83;72.38;98624.41;4990675;28;20770;-80
2021/03/10 05:07:32;;;;;;;69.83;37.33;;;4.90;79.40;;;3.93;71.79;98627.56;4973711;28;20431;-80
2021/03/10 05:09:59;;;;;;;68.47;36.73;;;5.10;79.00;;;3.97;71.80;98622.78;4989309;28;20431;-82
2021/03/10 05:12:29;;;;;;;70.25;37.53;;;5.10;78.60;;;3.86;72.29;98634.50;4987585;28;20475;-82
2021/03/10 05:14:56;;;;;;;65.43;35.97;;;5.10;78.90;;;3.81;72.20;98621.94;4987162;28;20451;-82
2021/03/10 05:17:25;;;;;;;68.07;37.50;;;5.00;78.90;;;3.85;72.25;98620.59;4984463;28;20470;-81
2021/03/10 05:19:51;;;;;;;67.87;36.93;;;5.00;79.10;;;3.79;72.41;98621.31;4965803;28;20690;-80
2021/03/10 05:22:18;;;;;;;70.50;37.65;;;4.90;79.20;;;3.77;72.75;98623.28;4966148;28;20853;-83
2021/03/10 05:24:44;;;;;;;66.80;36.47;;;4.90;79.30;;;3.77;72.42;98625.91;4987009;28;20417;-83
2021/03/10 05:27:10;;;;;;;68.97;37.67;;;4.90;79.40;;;3.77;72.36;98635.56;4967443;28;20416;-82
2021/03/10 05:29:37;;;;;;;74.57;39.63;;;4.90;79.40;;;3.86;72.21;98634.50;4984856;28;20412;-83
2021/03/10 05:32:04;;;;;;;74.23;40.10;;;5.00;79.40;;;3.90;72.20;98638.41;4989499;28;20547;-83
2021/03/10 05:34:31;;;;;;;67.60;37.35;;;5.00;79.10;;;3.87;71.92;98633.50;4987201;28;20412;-82
2021/03/10 05:36:58;;;;;;;72.23;39.60;;;5.10;78.90;;;3.98;71.80;98627.84;4988252;28;20432;-82
2021/03/10 05:39:24;;;;;;;66.13;37.33;;;5.10;78.70;;;3.95;71.75;98627.38;4969973;28;20424;-82
2021/03/10 05:41:51;;;;;;;69.95;39.15;;;5.10;78.50;;;3.97;71.68;98623.59;4988567;28;20451;-83
2021/03/10 05:44:17;;;;;;;73.68;37.88;;;5.10;78.60;;;3.95;71.60;98635.25;4970626;28;20420;-83
2021/03/10 05:46:44;;;;;;;67.93;37.58;;;5.10;78.40;;;3.95;71.73;98638.69;4986559;28;20420;-83
2021/03/10 05:49:10;;;;;;;71.72;38.13;;;5.10;78.60;;;3.81;72.24;98640.28;4984324;28;20442;-84
2021/03/10 05:51:37;;;;;;;69.30;36.22;;;5.00;78.90;;;3.72;72.49;98640.50;4988039;28;20423;-84
2021/03/10 05:54:05;;;;;;;72.07;37.25;;;4.90;79.20;;;3.61;72.91;98641.75;4990023;28;20416;-84
2021/03/10 05:56:32;;;;;;;71.25;38.10;;;4.80;79.70;;;3.57;73.07;98639.66;4989277;28;20463;-83
2021/03/10 05:59:00;;;;;;;70.28;36.97;;;4.70;80.00;;;3.70;72.85;98651.16;4971387;28;20424;-83
2021/03/10 06:01:27;;;;;;;70.03;36.08;;;4.80;79.80;;;3.72;72.57;98649.19;4989929;28;20431;-85
2021/03/10 06:03:55;;;;;;;74.00;38.42;;;4.90;79.70;;;3.67;72.67;98642.88;4989236;28;20420;-82
2021/03/10 06:06:22;;;;;;;70.05;38.35;;;4.80;79.70;;;3.71;72.41;98651.97;4991455;28;20451;-82
2021/03/10 06:08:49;;;;;;;74.05;37.63;;;4.90;79.50;;;3.77;72.18;98646.84;4992346;28;20420;-82
2021/03/10 06:11:26;;;;;;;75.05;38.00;;;4.90;79.30;;;3.75;72.21;98642.78;4994243;28;20500;-80
2021/03/10 06:13:53;;;;;;;68.03;37.67;;;4.90;79.10;;;3.73;72.17;98650.81;4988249;28;20818;-81
2021/03/10 06:16:25;;;;;;;66.07;36.08;;;4.90;79.30;;;3.74;72.28;98651.63;4982177;28;20426;-79
2021/03/10 06:19:02;;;;;;;66.78;35.35;;;4.90;79.10;;;3.69;72.55;98653.94;4983947;28;20484;-81
2021/03/10 06:21:29;;;;;;;70.55;37.03;;;4.80;79.50;;;3.76;72.36;98660.13;4989902;28;20442;-79
2021/03/10 06:23:59;;;;;;;68.82;36.25;;;4.90;79.50;;;3.80;72.13;98659.59;4989629;28;20415;-81
2021/03/10 06:26:27;;;;;;;63.08;36.30;;;5.00;79.10;;;3.85;71.82;98656.44;4992280;28;20491;-80
2021/03/10 06:28:55;;;;;;;64.50;35.15;;;5.00;79.00;;;3.93;71.87;98666.03;4994345;28;20448;-82
2021/03/10 06:31:23;;;;;;;63.97;35.20;;;5.10;79.00;;;4.04;71.76;98673.47;4995274;28;20422;-82
2021/03/10 06:34:05;;;;;;;66.03;35.25;;;5.10;78.70;;;4.16;70.56;98669.41;4976337;28;20531;-82
2021/03/10 06:36:34;;;;;;;63.55;36.22;;;5.20;77.80;;;4.22;70.52;98674.75;4988738;28;20427;-82
2021/03/10 06:39:03;;;;;;;62.97;35.63;;;5.30;77.60;;;4.38;70.06;98672.97;4986799;28;20553;-82
2021/03/10 06:41:34;;;;;;;64.93;34.10;;;5.40;77.10;;;4.42;69.35;98669.81;4984424;28;20547;-82
2021/03/10 06:44:02;;;;;;;64.80;34.85;;;5.50;76.40;;;4.55;69.04;98662.13;4975345;28;20431;-84
2021/03/10 06:46:28;;;;;;;63.47;34.22;;;5.60;76.10;;;4.59;68.79;98665.19;4978883;28;20531;-84
2021/03/10 06:48:57;;;;;;;61.63;34.42;;;5.70;75.80;;;4.56;68.84;98666.38;4981838;28;20440;-84
2021/03/10 06:51:25;;;;;;;64.28;33.03;;;5.70;75.70;;;4.46;69.05;98667.63;4985217;28;20416;-84
2021/03/10 06:53:52;;;;;;;64.30;35.38;;;5.60;75.90;;;4.52;68.89;98672.16;4994601;28;20411;-83
2021/03/10 06:56:25;;;;;;;62.53;33.85;;;5.60;75.90;;;4.60;68.74;98678.13;4994657;28;20479;-83
2021/03/10 06:59:03;;;;;;;62.60;34.80;;;5.70;75.60;;;4.65;68.63;98680.22;4992776;28;20428;-84
2021/03/10 07:01:38;;;;;;;61.85;34.80;;;5.80;75.50;;;4.51;69.07;98688.91;4982092;28;20823;-84
2021/03/10 07:04:05;;;;;;;63.27;36.40;;;5.60;75.70;;;4.52;69.24;98683.47;4975011;28;20492;-83
2021/03/10 07:06:32;;;;;;;59.05;35.42;;;5.60;75.90;;;4.60;69.08;98691.25;4961583;29;20449;-84
2021/03/10 07:08:59;;;;;;;63.47;35.23;;;5.70;76.00;;;4.47;69.32;98688.44;4961782;29;20435;-82
2021/03/10 07:11:26;;;;;;;91.05;34.85;;;5.60;76.10;;;4.50;69.23;98695.16;4960776;29;20895;-83
2021/03/10 07:13:53;;;;;;;66.07;34.38;;;5.60;76.10;;;4.59;68.90;98697.47;4951789;29;20425;-81
2021/03/10 07:16:20;;;;;;;65.32;34.20;;;5.60;75.90;;;4.70;68.68;98701.47;4968650;29;20493;-84
2021/03/10 07:18:48;;;;;;;60.60;35.63;;;5.80;75.80;;;4.85;68.13;98706.72;4968323;28;20715;-84
2021/03/10 07:21:25;;;;;;;61.35;33.38;;;5.90;75.10;;;4.79;67.90;98703.00;4980556;28;20887;-84
2021/03/10 07:23:55;;;;;;;56.83;33.40;;;5.90;75.40;;;4.70;68.20;98711.97;4979202;28;20419;-83
2021/03/10 07:26:24;;;;;;;57.33;33.03;;;5.80;74.80;;;4.67;68.27;98707.88;4980753;28;20416;-83
2021/03/10 07:28:56;;;;;;;62.83;34.05;;;5.80;75.10;;;4.68;68.73;98717.38;4978754;28;20447;-84
2021/03/10 07:31:24;;;;;;;67.40;35.88;;;5.70;75.40;;;4.77;68.48;98719.91;4980986;28;20427;-83
2021/03/10 07:33:53;;;;;;;67.18;35.97;;;5.80;75.40;;;4.88;68.10;98717.66;4964075;28;20432;-84
2021/03/10 07:36:31;;;;;;;59.43;33.07;;;5.90;74.80;;;4.79;68.25;98723.19;4980214;28;20412;-84
2021/03/10 07:38:58;;;;;;;66.03;32.83;;;5.90;74.80;;;4.67;68.63;98731.47;4972887;28;20510;-83
2021/03/10 07:41:34;;;;;;;61.08;32.45;;;5.80;75.40;;;4.59;68.78;98725.50;4979624;28;20439;-84
2021/03/10 07:44:01;;;;;;;63.58;34.42;;;5.70;75.50;;;4.70;68.74;98729.50;4979941;28;20419;-82
2021/03/10 07:46:31;;;;;;;64.15;34.60;;;5.80;75.80;;;4.87;68.19;98720.47;4976497;28;20424;-82
2021/03/10 07:48:59;;;;;;;58.33;32.88;;;5.90;75.00;;;5.07;67.44;98726.78;4952996;28;20420;-82
2021/03/10 07:51:32;;;;;;;68.03;35.72;;;6.10;74.40;;;5.17;66.84;98740.44;4973009;28;20891;-82
2021/03/10 07:54:00;;;;;;;62.25;33.58;;;6.20;73.70;;;5.26;66.75;98741.94;4963562;28;20433;-83
2021/03/10 07:56:28;;;;;;;61.75;32.10;;;6.30;73.60;;;5.39;66.25;98738.66;4961839;29;20425;-83
2021/03/10 07:59:07;;;;;;;58.33;32.65;;;6.40;73.10;;;5.42;65.66;98735.66;4944238;29;20422;-84
2021/03/10 08:01:34;;;;;;;54.13;31.88;;;6.50;72.90;;;5.36;65.89;98749.53;4960123;29;20438;-85
2021/03/10 08:04:14;;;;;;;58.00;33.63;;;6.50;72.30;;;5.35;66.25;98747.91;4961432;29;20450;-85
2021/03/10 08:06:43;;;;;;;58.90;34.57;;;6.40;72.70;;;5.49;65.65;98754.16;4970541;28;20531;-84
2021/03/10 08:09:09;;;;;;;62.13;33.45;;;6.50;72.40;;;5.56;65.16;98755.03;4965133;28;20431;-83
2021/03/10 08:11:37;;;;;;;61.95;34.85;;;6.60;71.90;;;5.55;65.44;98756.84;4982011;28;20443;-84
2021/03/10 08:14:04;;;;;;;101.35;35.92;;;6.60;72.10;;;5.48;65.54;98749.88;4981849;28;20440;-83
2021/03/10 08:16:45;;;;;;;66.20;33.53;;;6.50;71.90;;;5.50;65.62;98748.69;4965838;28;20434;-83
2021/03/10 08:19:12;;;;;;;59.15;32.00;;;6.50;72.20;;;5.48;65.60;98745.44;4964211;28;20427;-84
2021/03/10 08:21:50;;;;;;;59.40;34.78;;;6.50;72.10;;;5.62;65.22;98747.22;4964296;28;20439;-84
2021/03/10 08:24:18;;;;;;;61.42;33.92;;;6.60;72.00;;;5.43;65.88;98750.41;4982364;28;20408;-83
2021/03/10 08:26:50;;;;;;;68.63;33.78;;;6.50;72.60;;;5.60;65.46;98749.22;4982092;28;20604;-84
2021/03/10 08:29:17;;;;;;;61.05;32.58;;;6.60;72.30;;;5.60;65.23;98754.47;4982290;28;20527;-84
2021/03/10 08:31:47;;;;;;;58.65;32.75;;;6.70;71.80;;;5.81;64.89;98751.03;4982540;28;20460;-84
2021/03/10 08:34:15;;;;;;;60.95;33.88;;;6.80;71.90;;;5.88;64.66;98751.94;4966308;28;20420;-85
2021/03/10 08:36:42;;;;;;;56.72;30.50;;;6.90;71.40;;;5.76;65.19;98761.28;4988476;28;20424;-85
2021/03/10 08:39:13;;;;;;;56.90;32.33;;;6.90;71.40;;;5.81;65.02;98761.53;4972691;28;20424;-85
2021/03/10 08:41:51;;;;;;;56.80;32.30;;;6.90;71.60;;;6.02;64.43;98755.50;4987991;28;20842;-85
2021/03/10 08:44:21;;;;;;;55.63;31.55;;;7.00;71.10;;;5.87;64.91;98752.09;4971924;28;20439;-85
2021/03/10 08:46:51;;;;;;;56.63;32.03;;;7.00;71.40;;;5.84;64.92;98746.22;4970006;28;20432;-85
2021/03/10 08:49:27;;;;;;;54.72;32.05;;;6.90;71.70;;;5.95;64.90;98749.38;4967547;28;20842;-84
2021/03/10 08:52:09;;;;;;;55.45;31.70;;;6.90;71.60;;;6.12;64.67;98756.81;4964997;28;20559;-85
2021/03/10 08:54:51;;;;;;;58.17;32.42;;;7.00;71.70;;;6.37;63.87;98751.16;4983146;28;20515;-85
2021/03/10 08:57:20;;;;;;;54.80;31.40;;;7.30;70.90;;;6.55;63.16;98751.50;4966507;28;20490;-85
2021/03/10 08:59:51;;;;;;;56.03;31.08;;;7.50;70.60;;;6.71;62.60;98747.75;4966050;28;20486;-86
2021/03/10 09:02:29;;;;;;;53.15;31.90;;;7.70;69.30;;;6.82;61.96;98748.06;4966833;28;20573;-85
2021/03/10 09:04:57;;;;;;;53.43;31.13;;;7.70;68.80;;;6.95;61.41;98745.50;4995117;28;20511;-85
2021/03/10 09:07:24;;;;;;;48.05;29.33;;;7.90;68.10;;;6.99;61.05;98740.66;4996681;28;20424;-84
2021/03/10 09:09:57;;;;;;;53.83;30.33;;;8.00;67.30;;;6.81;62.51;98753.50;4991963;28;20534;-83
2021/03/10 09:12:26;;;;;;;51.45;30.20;;;7.90;68.50;;;6.89;61.85;98740.19;4970264;28;20420;-83
2021/03/10 09:14:53;;;;;;;49.85;27.33;;;7.90;68.10;;;6.93;60.62;98742.22;4985378;28;20842;-84
2021/03/10 09:17:31;;;;;;;47.83;24.75;;;7.90;67.10;;;6.53;62.39;98751.72;4969258;28;20439;-84
2021/03/10 09:19:59;;;;;;;54.65;30.55;;;7.60;68.00;;;6.58;62.47;98751.94;4966676;28;20427;-83
2021/03/10 09:22:26;;;;;;;48.35;25.85;;;7.50;68.70;;;6.73;61.50;98743.94;4967312;28;20447;-84
2021/03/10 09:24:58;;;;;;;50.92;25.70;;;7.70;67.80;;;6.51;61.08;98745.81;4967149;28;20519;-84
2021/03/10 09:27:28;;;;;;;40.85;19.67;;;7.60;67.10;;;6.47;61.04;98741.94;4967798;28;20523;-86
2021/03/10 09:29:56;;;;;;;51.45;24.73;;;7.60;66.90;;;6.56;61.32;98738.16;4969878;28;20420;-85
2021/03/10 09:32:24;;;;;;;46.93;24.40;;;7.60;67.60;;;6.53;60.84;98735.94;4994451;28;20439;-85
2021/03/10 09:34:53;;;;;;;50.50;29.10;;;7.60;66.90;;;6.92;60.10;98735.34;4978776;28;21510;-85
2021/03/10 09:37:25;;;;;;;42.55;25.98;;;7.80;66.80;;;7.13;58.71;98738.91;4996288;28;20478;-85
2021/03/10 09:39:53;;;;;;;43.90;26.17;;;8.10;65.00;;;7.08;57.37;98747.38;4986872;28;20432;-85
2021/03/10 09:42:21;;;;;;;42.80;26.98;;;8.10;63.60;;;7.33;57.05;98745.06;4986140;28;20500;-84
2021/03/10 09:44:50;;;;;;;44.47;25.77;;;8.20;63.40;;;7.52;56.43;98736.38;4967674;28;20424;-84
2021/03/10 09:47:21;;;;;;;41.65;25.38;;;8.40;62.60;;;7.55;55.65;98735.19;4967223;28;20514;-84
2021/03/10 09:49:55;;;;;;;43.43;25.47;;;8.50;61.60;;;7.73;54.38;98730.19;4966619;28;20447;-84
2021/03/10 09:52:33;;;;;;;39.10;22.67;;;8.60;60.20;;;7.70;53.82;98733.22;4968198;28;20488;-84
2021/03/10 09:55:00;;;;;;;34.47;21.33;;;8.70;59.30;;;7.75;52.36;98726.31;4985337;28;20420;-83
2021/03/10 09:57:28;;;;;;;42.50;21.40;;;8.70;58.00;;;7.65;52.51;98738.28;4985515;28;20424;-85
2021/03/10 09:59:58;;;;;;;37.87;20.00;;;8.70;57.90;;;7.09;54.37;98724.47;4984051;28;20412;-86
2021/03/10 10:02:25;;;;;;;38.53;22.02;;;8.20;59.00;;;7.22;54.30;98735.06;4984608;28;20431;-85
2021/03/10 10:05:06;;;;;;;36.95;21.40;;;8.20;59.60;;;7.25;54.42;98732.88;4987626;28;20478;-85
2021/03/10 10:07:32;;;;;;;38.65;22.45;;;8.20;59.60;;;7.23;54.50;98731.44;4979764;28;20537;-83
2021/03/10 10:10:00;;;;;;;43.55;22.83;;;8.20;59.80;;;7.28;54.88;98734.31;4969770;29;20409;-82
2021/03/10 10:12:27;;;;;;;38.90;23.58;;;8.30;60.30;;;7.44;54.54;98741.06;4969322;29;20414;-84
2021/03/10 10:14:53;;;;;;;43.13;23.30;;;8.40;60.00;;;7.47;54.45;98748.53;4968906;29;20463;-86
2021/03/10 10:17:19;;;;;;;38.30;23.45;;;8.40;59.80;;;7.47;54.23;98740.63;4970974;29;20409;-84
2021/03/10 10:19:46;;;;;;;43.05;23.65;;;8.50;59.70;;;7.45;54.39;98740.00;4970920;29;20481;-84
2021/03/10 10:22:16;;;;;;;41.28;22.58;;;8.40;59.80;;;7.71;53.91;98740.91;4970830;29;20434;-85
2021/03/10 10:24:42;;;;;;;38.45;20.90;;;8.50;59.60;;;7.33;54.31;98745.06;4968864;29;20429;-84
2021/03/10 10:27:09;;;;;;;35.78;19.38;;;8.50;59.20;;;7.05;54.71;98731.16;4968123;29;20432;-85